Dayton/Wright-Patterson AFB, Ohio
Current Conditions -  °F | °C
As of 8:14 PM on Thursday 27 Nov 2014 (Local Time) from KFFO Reporting Station
Light Snow Light Snow  
Wind Chill: 18°   Ceiling: 2300
Heat Index: 28°   Visibility: 10mi
Dew Point: 21°   Wind: 12mph
Humidity: 74%   Direction: 270°W
Pressure: 30.34"   Gusts: NA
Location:  39.83°N, 84.05°W
Report Text: KFFO 280114Z 27010KT 10SM -SN OVC023 M02/M06 A3034
Loading
Personal Weather Stations






























Interactive Weather Map New forecast layout! Learn more

10-Day Weather Forecast

Advertisements
Track Severe Weather on mobile